createdAt,value
2023-05-08T00:00:07.798Z,18
2023-05-08T00:05:24.154Z,17
2023-05-08T00:10:40.753Z,18
2023-05-08T00:15:56.895Z,16
2023-05-08T00:21:13.254Z,16
2023-05-08T00:26:29.608Z,17
2023-05-08T00:31:46.050Z,15
2023-05-08T00:37:02.335Z,16
2023-05-08T00:42:18.716Z,16
2023-05-08T00:47:35.108Z,14
2023-05-08T00:52:51.447Z,18
2023-05-08T00:58:07.795Z,14
2023-05-08T01:03:24.285Z,15
2023-05-08T01:08:40.547Z,15
2023-05-08T01:13:56.891Z,15
2023-05-08T01:19:13.253Z,15
2023-05-08T01:24:29.602Z,17
2023-05-08T01:29:45.978Z,16
2023-05-08T01:35:02.346Z,15
2023-05-08T01:40:18.711Z,15
2023-05-08T01:45:35.064Z,15
2023-05-08T01:50:51.435Z,14
2023-05-08T01:56:07.778Z,16
2023-05-08T02:01:24.265Z,15
2023-05-08T02:06:40.485Z,15
2023-05-08T02:11:57.366Z,14
2023-05-08T02:17:13.184Z,13
2023-05-08T02:22:29.561Z,11
2023-05-08T02:27:45.898Z,8
2023-05-08T02:33:02.270Z,9
2023-05-08T02:38:18.594Z,12
2023-05-08T02:43:34.948Z,13
2023-05-08T02:48:51.304Z,13
2023-05-08T02:54:07.669Z,11
2023-05-08T02:59:24.013Z,7
2023-05-08T03:04:40.369Z,10
2023-05-08T03:09:56.735Z,16
2023-05-08T03:15:13.075Z,12
2023-05-08T03:20:29.458Z,11
2023-05-08T03:25:45.798Z,12
2023-05-08T03:31:02.179Z,10
2023-05-08T03:36:18.495Z,12
2023-05-08T03:41:34.867Z,11
2023-05-08T03:46:51.325Z,12
2023-05-08T03:52:07.577Z,13
2023-05-08T03:57:23.934Z,11
2023-05-08T04:02:42.276Z,10
2023-05-08T04:07:56.650Z,9
2023-05-08T04:13:13.339Z,13
2023-05-08T04:18:29.382Z,15
2023-05-08T04:23:45.737Z,13
2023-05-08T04:29:02.104Z,14
2023-05-08T04:34:18.474Z,17
2023-05-08T04:39:34.848Z,13
2023-05-08T04:44:51.195Z,12
2023-05-08T04:50:07.552Z,9
2023-05-08T04:55:23.918Z,12
2023-05-08T05:00:40.254Z,14
2023-05-08T05:05:56.607Z,16
2023-05-08T05:11:12.966Z,18
2023-05-08T05:16:29.356Z,15
2023-05-08T05:21:45.678Z,14
2023-05-08T05:27:02.037Z,11
2023-05-08T05:32:18.400Z,16
2023-05-08T05:37:34.738Z,11
2023-05-08T05:42:51.085Z,13
2023-05-08T05:48:07.478Z,15
2023-05-08T05:53:23.824Z,17
2023-05-08T05:58:40.177Z,11
2023-05-08T06:03:56.606Z,12
2023-05-08T06:09:12.865Z,10
2023-05-08T06:14:29.233Z,10
2023-05-08T06:19:45.591Z,13
2023-05-08T06:25:01.937Z,14
2023-05-08T06:30:18.300Z,12
2023-05-08T06:35:34.656Z,12
2023-05-08T06:40:51.001Z,18
2023-05-08T06:46:07.369Z,18
2023-05-08T06:51:23.736Z,28
2023-05-08T06:56:40.078Z,18
2023-05-08T07:01:56.481Z,10
2023-05-08T07:07:12.794Z,13
2023-05-08T07:12:29.158Z,11
2023-05-08T07:17:45.527Z,11
2023-05-08T07:23:01.856Z,14
2023-05-08T07:28:18.970Z,12
2023-05-08T07:33:35.340Z,11
2023-05-08T07:38:51.694Z,13
2023-05-08T07:44:08.043Z,12
2023-05-08T07:49:24.455Z,14
2023-05-08T07:54:40.753Z,12
2023-05-08T07:59:57.122Z,12
2023-05-08T08:05:13.788Z,11
2023-05-08T08:10:29.818Z,7
2023-05-08T08:15:46.173Z,7
2023-05-08T08:21:02.548Z,9
2023-05-08T08:26:18.872Z,8
2023-05-08T08:31:35.456Z,10
2023-05-08T08:36:51.545Z,10
2023-05-08T08:42:07.920Z,9
2023-05-08T08:47:24.314Z,12
2023-05-08T08:52:40.608Z,9
2023-05-08T08:57:56.946Z,9
2023-05-08T09:03:13.429Z,11
2023-05-08T09:08:29.629Z,8
2023-05-08T09:13:45.986Z,11
2023-05-08T09:19:03.925Z,10
2023-05-08T09:24:18.677Z,10
2023-05-08T09:29:35.034Z,9
2023-05-08T09:34:51.376Z,9
2023-05-08T09:40:07.699Z,10
2023-05-08T09:45:24.032Z,9
2023-05-08T09:50:41.697Z,8
2023-05-08T09:55:56.716Z,9
2023-05-08T10:01:13.128Z,6
2023-05-08T10:06:29.389Z,8
2023-05-08T10:11:45.744Z,5
2023-05-08T10:17:02.103Z,6
2023-05-08T10:22:18.426Z,6
2023-05-08T10:27:34.750Z,6
2023-05-08T10:32:51.167Z,4
2023-05-08T10:38:07.444Z,5
2023-05-08T10:43:23.798Z,6
2023-05-08T10:48:40.157Z,7
2023-05-08T10:53:56.486Z,6
2023-05-08T10:59:12.848Z,7
2023-05-08T11:04:29.320Z,6
2023-05-08T11:09:45.514Z,5
2023-05-08T11:15:01.876Z,8
2023-05-08T11:20:18.326Z,6
2023-05-08T11:25:34.552Z,7
2023-05-08T11:30:50.896Z,8
2023-05-08T11:36:07.227Z,8
2023-05-08T11:41:23.575Z,8
2023-05-08T11:46:39.968Z,6
2023-05-08T11:51:56.267Z,9
2023-05-08T11:57:12.614Z,6
2023-05-08T12:02:29.472Z,8
2023-05-08T12:07:45.293Z,6
2023-05-08T12:13:01.712Z,7
2023-05-08T12:18:17.995Z,6
2023-05-08T12:23:34.353Z,7
2023-05-08T12:28:50.713Z,6
2023-05-08T12:34:07.051Z,7
2023-05-08T12:39:23.430Z,10
2023-05-08T12:44:39.782Z,6
2023-05-08T12:49:56.147Z,9
2023-05-08T12:55:12.494Z,6
2023-05-08T13:00:28.880Z,7
2023-05-08T13:05:45.222Z,6
2023-05-08T13:11:01.589Z,6
2023-05-08T13:16:17.979Z,7
2023-05-08T13:21:34.287Z,5
2023-05-08T13:26:50.632Z,8
2023-05-08T13:32:07.057Z,6
2023-05-08T13:37:23.351Z,7
2023-05-08T13:42:39.706Z,7
2023-05-08T13:47:56.097Z,10
2023-05-08T13:53:12.421Z,7
2023-05-08T13:58:28.752Z,6
2023-05-08T14:03:45.380Z,9
2023-05-08T14:09:01.475Z,10
2023-05-08T14:14:17.790Z,7
2023-05-08T14:19:34.156Z,9
2023-05-08T14:24:50.491Z,13
2023-05-08T14:30:06.917Z,8
2023-05-08T14:35:23.198Z,8
2023-05-08T14:40:39.549Z,6
2023-05-08T14:45:55.898Z,6
2023-05-08T14:51:12.239Z,6
2023-05-08T14:56:30.251Z,4
2023-05-08T15:01:45.024Z,6
2023-05-08T15:07:01.260Z,5
2023-05-08T15:12:17.628Z,6
2023-05-08T15:17:34.004Z,6
2023-05-08T15:22:50.316Z,6
2023-05-08T15:28:06.652Z,6
2023-05-08T15:33:23.010Z,6
2023-05-08T15:38:39.349Z,6
2023-05-08T15:43:55.685Z,6
2023-05-08T15:49:12.045Z,4
2023-05-08T15:54:28.409Z,6
2023-05-08T15:59:44.750Z,7
2023-05-08T16:05:01.186Z,7
2023-05-08T16:10:17.465Z,6
2023-05-08T16:15:33.780Z,8
2023-05-08T16:20:50.133Z,5
2023-05-08T16:26:06.488Z,4
2023-05-08T16:31:22.853Z,5
2023-05-08T16:36:39.204Z,7
2023-05-08T16:41:55.546Z,6
2023-05-08T16:47:11.952Z,5
2023-05-08T16:52:28.481Z,8
2023-05-08T16:57:44.598Z,7
2023-05-08T17:03:01.647Z,11
2023-05-08T17:08:17.892Z,6
2023-05-08T17:13:34.303Z,5
2023-05-08T17:19:07.890Z,6
2023-05-08T17:24:24.260Z,12
2023-05-08T17:29:40.632Z,8
2023-05-08T17:34:56.991Z,7
2023-05-08T17:40:13.743Z,10
2023-05-08T17:45:29.831Z,8
2023-05-08T17:50:46.074Z,9
2023-05-08T17:56:02.441Z,9
2023-05-08T18:01:18.875Z,16
2023-05-08T18:06:35.158Z,9
2023-05-08T18:11:51.535Z,9
2023-05-08T18:17:07.875Z,11
2023-05-08T18:22:24.257Z,11
2023-05-08T18:27:40.595Z,11
2023-05-08T18:32:57.006Z,10
2023-05-08T18:38:13.300Z,11
2023-05-08T18:43:29.681Z,13
2023-05-08T18:48:46.043Z,11
2023-05-08T18:54:02.380Z,9
2023-05-08T18:59:18.737Z,13
2023-05-08T19:04:35.077Z,10
2023-05-08T19:09:51.450Z,15
2023-05-08T19:15:07.815Z,13
2023-05-08T19:20:24.199Z,16
2023-05-08T19:25:40.552Z,14
2023-05-08T19:30:56.931Z,10
2023-05-08T19:36:13.284Z,16
2023-05-08T19:41:29.653Z,12
2023-05-08T19:46:46.003Z,13
2023-05-08T19:52:02.390Z,12
2023-05-08T19:57:18.720Z,15
2023-05-08T20:02:35.179Z,18
2023-05-08T20:07:52.031Z,14
2023-05-08T20:13:08.463Z,25
2023-05-08T20:18:24.780Z,19
2023-05-08T20:23:41.189Z,17
2023-05-08T20:28:58.108Z,18
2023-05-08T20:34:14.459Z,16
2023-05-08T20:39:30.843Z,17
2023-05-08T20:44:47.200Z,17
2023-05-08T20:50:03.564Z,14
2023-05-08T20:55:20.499Z,18
2023-05-08T21:00:37.450Z,19
2023-05-08T21:05:54.382Z,17
2023-05-08T21:11:10.754Z,13
2023-05-08T21:16:27.223Z,17
2023-05-08T21:21:43.702Z,18
2023-05-08T21:26:59.865Z,18
2023-05-08T21:32:16.235Z,18
2023-05-08T21:37:32.601Z,15
2023-05-08T21:42:48.979Z,20
2023-05-08T21:48:05.374Z,16
2023-05-08T21:53:21.722Z,16
2023-05-08T21:58:38.094Z,15
2023-05-08T22:03:54.615Z,14
2023-05-08T22:09:10.842Z,16
2023-05-08T22:14:27.202Z,14
2023-05-08T22:19:44.167Z,18
2023-05-08T22:25:00.529Z,14
2023-05-08T22:30:16.891Z,14
2023-05-08T22:35:33.256Z,12
2023-05-08T22:40:49.358Z,14
2023-05-08T22:46:05.799Z,14
2023-05-08T22:51:22.663Z,15
2023-05-08T22:56:38.999Z,13
2023-05-08T23:01:55.416Z,12
2023-05-08T23:07:11.762Z,16
2023-05-08T23:12:28.131Z,13
2023-05-08T23:17:45.090Z,16
2023-05-08T23:23:01.456Z,14
2023-05-08T23:28:17.773Z,12
2023-05-08T23:33:34.139Z,15
2023-05-08T23:38:50.496Z,13
2023-05-08T23:44:06.862Z,14
2023-05-08T23:49:23.213Z,11
2023-05-08T23:54:40.151Z,15
2023-05-08T23:59:57.089Z,16
